createdAt,value
2022-12-26T00:03:24.027Z,100020.69
2022-12-26T00:06:31.439Z,100026.38
2022-12-26T00:09:23.362Z,100030.19
2022-12-26T00:12:50.461Z,100024.75
2022-12-26T00:15:58.758Z,99997.34
2022-12-26T00:19:17.163Z,99992.69
2022-12-26T00:22:30.619Z,99993.25
2022-12-26T00:25:43.593Z,99980.22
2022-12-26T00:28:39.742Z,99973.69
2022-12-26T00:31:43.431Z,99948.72
2022-12-26T00:34:44.853Z,99941.94
2022-12-26T00:37:37.453Z,99955.50
2022-12-26T00:40:46.267Z,99903.72
2022-12-26T00:43:39.189Z,99951.66
2022-12-26T00:50:13.293Z,99911.50
2022-12-26T00:53:20.371Z,99928.31
2022-12-26T00:56:18.791Z,99921.75
2022-12-26T00:59:15.711Z,99932.38
2022-12-26T01:02:23.881Z,99886.84
2022-12-26T01:05:13.358Z,99942.38
2022-12-26T01:08:24.558Z,99958.94
2022-12-26T01:11:46.223Z,99953.75
2022-12-26T01:14:48.319Z,99939.38
2022-12-26T01:17:54.324Z,99931.47
2022-12-26T01:20:52.783Z,99946.94
2022-12-26T01:23:44.522Z,99937.44
2022-12-26T01:26:48.131Z,99906.81
2022-12-26T01:29:47.209Z,99921.94
2022-12-26T01:32:43.468Z,99918.91
2022-12-26T01:35:53.326Z,99909.66
2022-12-26T01:41:54.134Z,99889.28
2022-12-26T01:44:59.490Z,99888.72
2022-12-26T01:47:57.446Z,99886.28
2022-12-26T01:50:46.881Z,99872.94
2022-12-26T01:53:37.778Z,99853.66
2022-12-26T01:56:30.931Z,99840.97
2022-12-26T01:59:23.620Z,99865.03
2022-12-26T02:02:11.532Z,99861.22
2022-12-26T02:05:16.715Z,99836.78
2022-12-26T02:08:10.921Z,99811.78
2022-12-26T02:11:08.049Z,99821.53
2022-12-26T02:13:57.791Z,99801.97
2022-12-26T02:16:51.804Z,99808.50
2022-12-26T02:19:54.605Z,99821.00
2022-12-26T02:22:59.767Z,99820.44
2022-12-26T02:26:05.023Z,99800.34
2022-12-26T02:28:57.663Z,99807.41
2022-12-26T02:32:22.473Z,99792.13
2022-12-26T02:35:32.552Z,99782.88
2022-12-26T02:38:43.057Z,99719.84
2022-12-26T02:41:47.128Z,99783.41
2022-12-26T02:44:58.101Z,99756.88
2022-12-26T02:48:15.295Z,99773.34
2022-12-26T02:51:53.140Z,99744.91
2022-12-26T02:55:30.152Z,99738.06
2022-12-26T02:58:42.559Z,99744.25
2022-12-26T03:01:56.999Z,99733.44
2022-12-26T03:05:03.609Z,99725.03
2022-12-26T03:08:09.254Z,99731.97
2022-12-26T03:11:16.799Z,99733.91
2022-12-26T03:14:27.368Z,99737.94
2022-12-26T03:17:32.909Z,99716.25
2022-12-26T03:20:24.647Z,99719.16
2022-12-26T03:23:14.441Z,99703.44
2022-12-26T03:26:25.747Z,99719.69
2022-12-26T03:29:34.109Z,99717.75
2022-12-26T03:32:20.715Z,99702.84
2022-12-26T03:35:17.335Z,99714.50
2022-12-26T03:38:10.399Z,99706.88
2022-12-26T03:41:42.756Z,99719.69
2022-12-26T03:45:03.599Z,99696.63
2022-12-26T03:48:18.971Z,99707.97
2022-12-26T03:51:30.402Z,99708.81
2022-12-26T03:54:41.987Z,99676.63
2022-12-26T03:58:06.664Z,99717.19
2022-12-26T04:01:15.564Z,99697.03
2022-12-26T04:04:26.097Z,99708.16
2022-12-26T04:07:56.546Z,99701.56
2022-12-26T04:11:08.681Z,99709.66
2022-12-26T04:14:28.332Z,99690.97
2022-12-26T04:17:58.582Z,99711.75
2022-12-26T04:21:09.183Z,99711.75
2022-12-26T04:24:15.767Z,99693.28
2022-12-26T04:27:24.641Z,99691.84
2022-12-26T04:30:30.184Z,99686.59
2022-12-26T04:33:44.630Z,99686.03
2022-12-26T04:37:11.366Z,99682.72
2022-12-26T04:40:17.852Z,99677.00
2022-12-26T04:43:46.799Z,99678.03
2022-12-26T04:46:32.414Z,99673.34
2022-12-26T04:49:38.885Z,99672.25
2022-12-26T04:52:25.551Z,99668.97
2022-12-26T04:55:12.224Z,99665.94
2022-12-26T04:57:59.675Z,99646.25
2022-12-26T05:00:48.881Z,99666.75
2022-12-26T05:03:55.159Z,99663.50
2022-12-26T05:07:00.251Z,99645.56
2022-12-26T05:09:49.791Z,99643.75
2022-12-26T05:12:36.742Z,99653.00
2022-12-26T05:15:24.077Z,99659.19
2022-12-26T05:18:36.622Z,99669.47
2022-12-26T05:21:42.125Z,99658.59
2022-12-26T05:25:00.347Z,99650.72
2022-12-26T05:28:23.009Z,99656.66
2022-12-26T05:31:16.725Z,99650.72
2022-12-26T05:34:07.568Z,99646.09
2022-12-26T05:36:56.796Z,99656.00
2022-12-26T05:39:44.875Z,99657.09
2022-12-26T05:42:31.330Z,99640.84
2022-12-26T05:45:18.108Z,99650.03
2022-12-26T05:48:07.456Z,99639.47
2022-12-26T05:50:59.490Z,99639.66
2022-12-26T05:53:45.598Z,99652.69
2022-12-26T05:56:32.639Z,99660.25
2022-12-26T05:59:18.948Z,99649.38
2022-12-26T06:02:05.683Z,99654.03
2022-12-26T06:05:02.577Z,99625.63
2022-12-26T06:07:52.452Z,99649.28
2022-12-26T06:10:45.858Z,99653.34
2022-12-26T06:13:36.209Z,99641.34
2022-12-26T06:16:22.821Z,99642.38
2022-12-26T06:19:10.180Z,99604.38
2022-12-26T06:21:56.595Z,99635.75
2022-12-26T06:24:43.617Z,99642.13
2022-12-26T06:27:29.896Z,99632.25
2022-12-26T06:30:17.099Z,99645.19
2022-12-26T06:33:03.277Z,99639.75
2022-12-26T06:35:52.865Z,99637.25
2022-12-26T06:38:40.114Z,99636.41
2022-12-26T06:41:29.949Z,99642.59
2022-12-26T06:44:18.966Z,99619.75
2022-12-26T06:47:05.839Z,99633.91
2022-12-26T06:49:55.290Z,99638.84
2022-12-26T06:52:42.445Z,99643.47
2022-12-26T06:55:34.321Z,99650.56
2022-12-26T07:01:44.796Z,99639.06
2022-12-26T07:04:35.694Z,99641.19
2022-12-26T07:07:22.199Z,99633.00
2022-12-26T07:10:12.782Z,99630.22
2022-12-26T07:13:29.312Z,99621.72
2022-12-26T07:16:26.796Z,99629.22
2022-12-26T07:19:15.613Z,99627.09
2022-12-26T07:22:05.263Z,99614.44
2022-12-26T07:24:54.342Z,99610.56
2022-12-26T07:27:43.997Z,99646.19
2022-12-26T07:30:30.565Z,99626.63
2022-12-26T07:33:17.474Z,99627.31
2022-12-26T07:36:07.347Z,99627.63
2022-12-26T07:38:54.546Z,99631.38
2022-12-26T07:41:58.973Z,99627.13
2022-12-26T07:44:45.575Z,99631.38
2022-12-26T07:47:35.693Z,99621.28
2022-12-26T07:50:29.345Z,99619.78
2022-12-26T07:53:17.067Z,99638.44
2022-12-26T07:56:10.980Z,99623.78
2022-12-26T07:58:57.676Z,99625.53
2022-12-26T08:01:44.598Z,99622.47
2022-12-26T08:04:32.827Z,99608.25
2022-12-26T08:07:23.027Z,99624.31
2022-12-26T08:10:09.690Z,99625.09
2022-12-26T08:13:09.273Z,99615.41
2022-12-26T08:15:56.123Z,99635.91
2022-12-26T08:18:43.207Z,99608.34
2022-12-26T08:21:32.358Z,99627.72
2022-12-26T08:24:19.264Z,99627.22
2022-12-26T08:27:05.839Z,99641.97
2022-12-26T08:30:02.064Z,99630.75
2022-12-26T08:32:51.378Z,99616.44
2022-12-26T08:35:39.230Z,99651.25
2022-12-26T08:38:29.912Z,99653.59
2022-12-26T08:41:19.269Z,99655.00
2022-12-26T08:47:15.615Z,99667.63
2022-12-26T08:50:01.807Z,99654.88
2022-12-26T08:52:48.650Z,99661.44
2022-12-26T08:55:37.358Z,99630.50
2022-12-26T08:58:24.176Z,99649.44
2022-12-26T09:01:22.282Z,99653.38
2022-12-26T09:04:15.192Z,99656.41
2022-12-26T09:07:08.177Z,99623.38
2022-12-26T09:10:19.060Z,99647.91
2022-12-26T09:13:23.128Z,99653.06
2022-12-26T09:16:25.103Z,99650.53
2022-12-26T09:19:35.449Z,99666.19
2022-12-26T09:22:50.242Z,99657.88
2022-12-26T09:25:40.574Z,99602.75
2022-12-26T09:28:28.338Z,99653.09
2022-12-26T09:31:21.811Z,99649.66
2022-12-26T09:34:11.412Z,99645.31
2022-12-26T09:36:57.555Z,99657.41
2022-12-26T09:39:43.925Z,99662.00
2022-12-26T09:42:43.942Z,99664.63
2022-12-26T09:46:16.235Z,99663.03
2022-12-26T09:49:19.530Z,99666.75
2022-12-26T09:52:13.365Z,99668.38
2022-12-26T09:55:06.019Z,99644.03
2022-12-26T09:57:53.938Z,99667.13
2022-12-26T10:00:57.693Z,99680.03
2022-12-26T10:04:16.103Z,99686.19
2022-12-26T10:07:58.226Z,99676.38
2022-12-26T10:10:58.727Z,99670.09
2022-12-26T10:14:21.732Z,99662.50
2022-12-26T10:17:20.755Z,99610.25
2022-12-26T10:20:21.766Z,99655.00
2022-12-26T10:23:24.734Z,99653.91
2022-12-26T10:26:34.374Z,99645.56
2022-12-26T10:29:36.005Z,99610.31
2022-12-26T10:32:32.389Z,99546.47
2022-12-26T10:35:27.875Z,99634.69
2022-12-26T10:38:38.308Z,99633.75
2022-12-26T10:41:39.637Z,99648.88
2022-12-26T10:44:29.097Z,99626.28
2022-12-26T10:47:35.997Z,99637.22
2022-12-26T10:50:47.587Z,99646.41
2022-12-26T10:53:37.951Z,99638.84
2022-12-26T10:56:25.609Z,99628.69
2022-12-26T10:59:17.577Z,99619.47
2022-12-26T11:02:24.284Z,99658.31
2022-12-26T11:05:33.267Z,99643.47
2022-12-26T11:08:40.907Z,99658.31
2022-12-26T11:11:46.311Z,99643.81
2022-12-26T11:14:39.287Z,99637.56
2022-12-26T11:17:40.788Z,99637.22
2022-12-26T11:20:29.432Z,99640.34
2022-12-26T11:23:31.855Z,99644.69
2022-12-26T11:26:24.478Z,99617.94
2022-12-26T11:29:22.276Z,99644.22
2022-12-26T11:32:19.194Z,99649.88
2022-12-26T11:35:41.457Z,99662.63
2022-12-26T11:38:39.086Z,99664.38
2022-12-26T11:41:32.687Z,99664.88
2022-12-26T11:44:24.995Z,99665.69
2022-12-26T11:47:16.586Z,99667.94
2022-12-26T11:50:08.955Z,99658.09
2022-12-26T11:52:58.652Z,99685.16
2022-12-26T11:56:04.250Z,99670.34
2022-12-26T11:58:54.515Z,99681.44
2022-12-26T12:01:43.852Z,99679.03
2022-12-26T12:04:30.352Z,99647.91
2022-12-26T12:07:31.144Z,99669.66
2022-12-26T12:10:35.159Z,99675.13
2022-12-26T12:13:55.915Z,99660.97
2022-12-26T12:16:58.916Z,99660.00
2022-12-26T12:20:07.015Z,99651.63
2022-12-26T12:23:11.010Z,99657.91
2022-12-26T12:26:08.124Z,99655.50
2022-12-26T12:29:06.721Z,99636.75
2022-12-26T12:32:16.168Z,99652.91
2022-12-26T12:35:27.593Z,99646.94
2022-12-26T12:38:42.295Z,99596.94
2022-12-26T12:41:34.881Z,99596.78
2022-12-26T12:44:27.150Z,99640.94
2022-12-26T12:47:34.532Z,99644.16
2022-12-26T12:50:44.918Z,99640.94
2022-12-26T12:53:31.760Z,99643.97
2022-12-26T12:56:42.491Z,99622.03
2022-12-26T12:59:38.761Z,99627.84
2022-12-26T13:02:52.492Z,99648.78
2022-12-26T13:05:56.826Z,99653.78
2022-12-26T13:08:57.020Z,99642.09
2022-12-26T13:11:47.162Z,99673.84
2022-12-26T13:14:41.269Z,99665.00
2022-12-26T13:18:01.372Z,99656.31
2022-12-26T13:20:56.085Z,99664.66
2022-12-26T13:24:09.987Z,99659.16
2022-12-26T13:27:02.646Z,99665.13
2022-12-26T13:29:49.883Z,99630.94
2022-12-26T13:32:36.315Z,99649.78
2022-12-26T13:36:01.932Z,99622.53
2022-12-26T13:39:02.050Z,99656.19
2022-12-26T13:42:08.793Z,99655.19
2022-12-26T13:44:55.983Z,99662.75
2022-12-26T13:47:42.553Z,99659.94
2022-12-26T13:50:56.126Z,99665.13
2022-12-26T13:54:00.020Z,99668.97
2022-12-26T13:57:34.820Z,99664.28
2022-12-26T14:00:51.266Z,99677.94
2022-12-26T14:04:11.620Z,99676.34
2022-12-26T14:07:16.834Z,99685.38
2022-12-26T14:10:23.400Z,99678.28
2022-12-26T14:13:34.389Z,99684.03
2022-12-26T14:16:23.728Z,99655.50
2022-12-26T14:19:25.358Z,99640.25
2022-12-26T14:22:15.621Z,99588.47
2022-12-26T14:25:22.985Z,99689.34
2022-12-26T14:28:18.812Z,99688.53
2022-12-26T14:31:27.547Z,99695.94
2022-12-26T14:34:36.386Z,99686.53
2022-12-26T14:37:53.245Z,99693.78
2022-12-26T14:40:39.883Z,99685.91
2022-12-26T14:43:31.679Z,99699.88
2022-12-26T14:46:38.610Z,99645.44
2022-12-26T14:49:37.607Z,99677.19
2022-12-26T14:52:24.374Z,99707.56
2022-12-26T14:55:39.359Z,99718.00
2022-12-26T14:58:28.039Z,99710.13
2022-12-26T15:01:19.900Z,99713.66
2022-12-26T15:04:41.079Z,99712.88
2022-12-26T15:07:48.648Z,99710.63
2022-12-26T15:11:00.874Z,99715.78
2022-12-26T15:14:51.172Z,99711.44
2022-12-26T15:17:50.226Z,99696.81
2022-12-26T15:20:44.486Z,99729.13
2022-12-26T15:23:32.920Z,99689.31
2022-12-26T15:26:19.541Z,99698.59
2022-12-26T15:29:17.673Z,99702.94
2022-12-26T15:32:37.801Z,99713.38
2022-12-26T15:35:45.334Z,99684.56
2022-12-26T15:38:41.089Z,99709.31
2022-12-26T15:41:48.158Z,99719.75
2022-12-26T15:44:55.022Z,99734.53
2022-12-26T15:47:46.417Z,99741.09
2022-12-26T15:50:58.005Z,99745.28
2022-12-26T15:53:58.695Z,99741.50
2022-12-26T15:56:49.163Z,99742.03
2022-12-26T16:00:03.356Z,99679.38
2022-12-26T16:03:07.490Z,99732.81
2022-12-26T16:06:20.260Z,99735.56
2022-12-26T16:09:16.507Z,99729.09
2022-12-26T16:12:03.146Z,99718.28
2022-12-26T16:15:10.914Z,99716.84
2022-12-26T16:18:16.199Z,99720.50
2022-12-26T16:21:24.979Z,99698.47
2022-12-26T16:24:12.932Z,99740.22
2022-12-26T16:27:04.705Z,99747.50
2022-12-26T16:30:08.074Z,99757.16
2022-12-26T16:37:06.181Z,99762.59
2022-12-26T16:40:11.940Z,99766.06
2022-12-26T16:43:09.990Z,99693.78
2022-12-26T16:46:02.967Z,99775.66
2022-12-26T16:48:58.894Z,99776.38
2022-12-26T16:51:51.234Z,99777.25
2022-12-26T16:54:39.837Z,99773.22
2022-12-26T16:57:31.691Z,99777.69
2022-12-26T17:00:20.158Z,99749.03
2022-12-26T17:03:11.123Z,99781.94
2022-12-26T17:06:05.446Z,99788.16
2022-12-26T17:08:52.850Z,99778.97
2022-12-26T17:11:52.879Z,99793.34
2022-12-26T17:14:48.407Z,99788.41
2022-12-26T17:17:39.567Z,99780.22
2022-12-26T17:20:37.587Z,99698.72
2022-12-26T17:23:40.385Z,99773.75
2022-12-26T17:26:39.478Z,99777.97
2022-12-26T17:29:56.627Z,99786.88
2022-12-26T17:32:50.041Z,99752.31
2022-12-26T17:38:41.545Z,99742.22
2022-12-26T17:41:28.027Z,99767.75
2022-12-26T17:44:38.322Z,99771.50
2022-12-26T17:47:30.549Z,99730.06
2022-12-26T17:50:22.934Z,99779.09
2022-12-26T17:53:33.262Z,99770.09
2022-12-26T17:56:33.696Z,99772.50
2022-12-26T17:59:24.264Z,99747.47
2022-12-26T18:02:14.854Z,99771.59
2022-12-26T18:05:07.397Z,99774.66
2022-12-26T18:08:03.532Z,99784.97
2022-12-26T18:10:49.903Z,99743.91
2022-12-26T18:13:37.246Z,99779.28
2022-12-26T18:16:28.234Z,99791.31
2022-12-26T18:19:19.900Z,99799.31
2022-12-26T18:22:17.164Z,99806.25
2022-12-26T18:25:04.178Z,99795.66
2022-12-26T18:27:54.484Z,99797.94
2022-12-26T18:30:44.444Z,99806.22
2022-12-26T18:33:31.020Z,99817.13
2022-12-26T18:36:19.525Z,99806.31
2022-12-26T18:39:13.719Z,99803.38
2022-12-26T18:42:00.596Z,99809.63
2022-12-26T18:44:46.819Z,99804.50
2022-12-26T18:47:33.734Z,99799.56
2022-12-26T18:50:22.722Z,99792.47
2022-12-26T18:53:14.288Z,99805.50
2022-12-26T18:56:00.488Z,99785.41
2022-12-26T18:58:58.038Z,99748.00
2022-12-26T19:01:47.033Z,99729.41
2022-12-26T19:04:33.506Z,99774.59
2022-12-26T19:07:26.075Z,99777.59
2022-12-26T19:10:21.001Z,99792.84
2022-12-26T19:13:10.203Z,99784.47
2022-12-26T19:16:00.324Z,99783.38
2022-12-26T19:18:46.858Z,99777.50
2022-12-26T19:21:36.457Z,99788.59
2022-12-26T19:24:22.624Z,99778.28
2022-12-26T19:27:13.846Z,99769.69
2022-12-26T19:30:00.151Z,99788.09
2022-12-26T19:32:47.667Z,99785.09
2022-12-26T19:35:34.898Z,99781.53
2022-12-26T19:38:24.448Z,99777.50
2022-12-26T19:41:12.846Z,99789.63
2022-12-26T19:44:04.158Z,99786.88
2022-12-26T19:47:12.686Z,99792.66
2022-12-26T19:50:00.996Z,99799.13
2022-12-26T19:52:47.616Z,99794.56
2022-12-26T19:55:37.485Z,99806.41
2022-12-26T19:58:41.843Z,99772.31
2022-12-26T20:01:30.767Z,99814.50
2022-12-26T20:04:17.151Z,99810.38
2022-12-26T20:07:04.574Z,99803.59
2022-12-26T20:09:53.313Z,99792.38
2022-12-26T20:12:40.140Z,99799.38
2022-12-26T20:15:26.768Z,99771.03
2022-12-26T20:18:19.929Z,99774.69
2022-12-26T20:21:07.757Z,99806.22
2022-12-26T20:23:57.974Z,99807.72
2022-12-26T20:26:44.868Z,99777.09
2022-12-26T20:29:36.996Z,99787.53
2022-12-26T20:32:25.929Z,99765.69
2022-12-26T20:35:15.143Z,99781.75
2022-12-26T20:38:04.248Z,99791.06
2022-12-26T20:40:50.982Z,99785.09
2022-12-26T20:43:37.935Z,99801.47
2022-12-26T20:46:27.585Z,99802.38
2022-12-26T20:49:14.134Z,99792.66
2022-12-26T20:52:02.769Z,99799.81
2022-12-26T20:54:51.578Z,99803.94
2022-12-26T20:57:41.968Z,99799.97
2022-12-26T21:00:30.603Z,99810.88
2022-12-26T21:03:22.861Z,99811.69
2022-12-26T21:06:14.035Z,99812.72
2022-12-26T21:09:00.630Z,99797.56
2022-12-26T21:11:48.911Z,99817.28
2022-12-26T21:14:35.639Z,99802.31
2022-12-26T21:17:21.989Z,99796.34
2022-12-26T21:20:10.524Z,99806.06
2022-12-26T21:22:58.290Z,99808.50
2022-12-26T21:25:45.233Z,99810.91
2022-12-26T21:28:32.496Z,99832.97
2022-12-26T21:31:19.451Z,99828.63
2022-12-26T21:34:06.360Z,99813.22
2022-12-26T21:37:23.144Z,99819.50
2022-12-26T21:40:10.061Z,99820.13
2022-12-26T21:43:00.212Z,99788.69
2022-12-26T21:45:49.405Z,99810.13
2022-12-26T21:48:39.828Z,99806.38
2022-12-26T21:51:28.662Z,99824.66
2022-12-26T21:54:36.996Z,99826.94
2022-12-26T21:57:26.975Z,99824.28
2022-12-26T22:00:17.224Z,99838.81
2022-12-26T22:03:36.150Z,99833.16
2022-12-26T22:06:32.483Z,99848.69
2022-12-26T22:09:19.004Z,99843.63
2022-12-26T22:12:25.147Z,99819.84
2022-12-26T22:15:30.055Z,99841.84
2022-12-26T22:18:18.303Z,99827.69
2022-12-26T22:21:15.204Z,99845.59
2022-12-26T22:24:04.332Z,99855.38
2022-12-26T22:26:52.187Z,99794.78
2022-12-26T22:29:47.714Z,99842.34
2022-12-26T22:32:41.104Z,99854.78
2022-12-26T22:35:30.274Z,99870.31
2022-12-26T22:38:16.894Z,99877.19
2022-12-26T22:41:05.691Z,99874.69
2022-12-26T22:43:55.295Z,99880.44
2022-12-26T22:46:46.466Z,99879.41
2022-12-26T22:49:32.892Z,99884.03
2022-12-26T22:52:20.014Z,99819.38
2022-12-26T22:55:10.236Z,99882.72
2022-12-26T22:58:02.270Z,99893.91
2022-12-26T23:00:49.765Z,99900.69
2022-12-26T23:03:36.334Z,99898.56
2022-12-26T23:06:28.885Z,99886.63
2022-12-26T23:09:16.931Z,99902.91
2022-12-26T23:12:22.310Z,99883.53
2022-12-26T23:15:15.695Z,99905.19
2022-12-26T23:18:28.489Z,99916.31
2022-12-26T23:21:42.701Z,99910.72
2022-12-26T23:24:30.182Z,99916.69
2022-12-26T23:27:37.790Z,99916.44
2022-12-26T23:30:26.003Z,99897.75
2022-12-26T23:33:13.311Z,99918.59
2022-12-26T23:35:59.841Z,99904.31
2022-12-26T23:38:46.857Z,99912.94
2022-12-26T23:41:33.522Z,99915.66
2022-12-26T23:44:20.118Z,99916.25
2022-12-26T23:47:09.514Z,99923.38
2022-12-26T23:49:56.545Z,99918.28
2022-12-26T23:52:43.449Z,99944.94
2022-12-26T23:55:33.928Z,99954.34
2022-12-26T23:58:27.690Z,99978.59
